sensor_id;sensor_type;location;lat;lon;timestamp;temperature;humidity
59961;DHT22;55902;-37.980;-63.602;2022-09-09T00:12:29;11.80;52.80
59961;DHT22;55902;-37.980;-63.602;2022-09-09T00:15:07;11.70;52.80
59961;DHT22;55902;-37.980;-63.602;2022-09-09T00:20:35;11.60;53.10
59961;DHT22;55902;-37.980;-63.602;2022-09-09T00:23:25;11.50;52.90
59961;DHT22;55902;-37.980;-63.602;2022-09-09T00:26:08;11.40;53.30
59961;DHT22;55902;-37.980;-63.602;2022-09-09T00:28:59;11.30;53.10
59961;DHT22;55902;-37.980;-63.602;2022-09-09T00:31:30;11.20;53.30
59961;DHT22;55902;-37.980;-63.602;2022-09-09T00:34:13;11.20;53.30
59961;DHT22;55902;-37.980;-63.602;2022-09-09T00:36:42;11.10;53.60
59961;DHT22;55902;-37.980;-63.602;2022-09-09T00:39:42;11.10;53.50
59961;DHT22;55902;-37.980;-63.602;2022-09-09T00:42:35;11.00;53.30
59961;DHT22;55902;-37.980;-63.602;2022-09-09T00:47:57;10.90;53.40
59961;DHT22;55902;-37.980;-63.602;2022-09-09T00:58:19;10.80;53.60
59961;DHT22;55902;-37.980;-63.602;2022-09-09T01:00:47;10.90;53.80
59961;DHT22;55902;-37.980;-63.602;2022-09-09T01:06:13;10.80;53.60
59961;DHT22;55902;-37.980;-63.602;2022-09-09T01:17:14;10.60;54.20
59961;DHT22;55902;-37.980;-63.602;2022-09-09T01:25:11;10.40;54.60
59961;DHT22;55902;-37.980;-63.602;2022-09-09T01:27:44;10.40;55.10
59961;DHT22;55902;-37.980;-63.602;2022-09-09T01:30:15;10.30;55.10
59961;DHT22;55902;-37.980;-63.602;2022-09-09T01:32:53;10.20;55.10
59961;DHT22;55902;-37.980;-63.602;2022-09-09T01:38:24;10.20;54.70
59961;DHT22;55902;-37.980;-63.602;2022-09-09T01:40:52;10.10;54.80
59961;DHT22;55902;-37.980;-63.602;2022-09-09T01:43:22;10.10;54.80
59961;DHT22;55902;-37.980;-63.602;2022-09-09T01:45:54;10.10;54.80
59961;DHT22;55902;-37.980;-63.602;2022-09-09T01:48:23;10.00;54.90
59961;DHT22;55902;-37.980;-63.602;2022-09-09T01:50:51;10.00;55.10
59961;DHT22;55902;-37.980;-63.602;2022-09-09T01:53:20;10.00;55.10
59961;DHT22;55902;-37.980;-63.602;2022-09-09T01:56:14;10.00;55.30
59961;DHT22;55902;-37.980;-63.602;2022-09-09T02:01:49;9.90;55.90
59961;DHT22;55902;-37.980;-63.602;2022-09-09T02:04:48;9.80;55.30
59961;DHT22;55902;-37.980;-63.602;2022-09-09T02:12:42;9.70;55.00
59961;DHT22;55902;-37.980;-63.602;2022-09-09T02:17:55;9.70;55.00
59961;DHT22;55902;-37.980;-63.602;2022-09-09T02:20:24;9.60;55.30
59961;DHT22;55902;-37.980;-63.602;2022-09-09T02:22:54;9.60;55.50
59961;DHT22;55902;-37.980;-63.602;2022-09-09T02:25:28;9.60;55.60
59961;DHT22;55902;-37.980;-63.602;2022-09-09T02:27:57;9.50;55.30
59961;DHT22;55902;-37.980;-63.602;2022-09-09T02:30:29;9.50;54.90
59961;DHT22;55902;-37.980;-63.602;2022-09-09T02:32:58;9.60;55.20
59961;DHT22;55902;-37.980;-63.602;2022-09-09T02:35:28;9.50;55.20
59961;DHT22;55902;-37.980;-63.602;2022-09-09T02:38:01;9.50;55.20
59961;DHT22;55902;-37.980;-63.602;2022-09-09T02:40:29;9.50;55.10
59961;DHT22;55902;-37.980;-63.602;2022-09-09T02:42:56;9.40;55.40
59961;DHT22;55902;-37.980;-63.602;2022-09-09T02:45:25;9.40;55.60
59961;DHT22;55902;-37.980;-63.602;2022-09-09T02:48:25;9.40;55.50
59961;DHT22;55902;-37.980;-63.602;2022-09-09T02:51:18;9.30;55.40
59961;DHT22;55902;-37.980;-63.602;2022-09-09T02:53:58;9.30;55.40
59961;DHT22;55902;-37.980;-63.602;2022-09-09T02:56:31;9.30;55.80
59961;DHT22;55902;-37.980;-63.602;2022-09-09T02:59:02;9.30;55.40
59961;DHT22;55902;-37.980;-63.602;2022-09-09T03:01:29;9.20;55.60
59961;DHT22;55902;-37.980;-63.602;2022-09-09T03:03:56;9.20;55.40
59961;DHT22;55902;-37.980;-63.602;2022-09-09T03:06:23;9.10;55.30
59961;DHT22;55902;-37.980;-63.602;2022-09-09T03:08:50;9.10;55.70
59961;DHT22;55902;-37.980;-63.602;2022-09-09T03:11:17;9.00;55.60
59961;DHT22;55902;-37.980;-63.602;2022-09-09T03:13:44;9.10;55.50
59961;DHT22;55902;-37.980;-63.602;2022-09-09T03:16:11;9.00;55.70
59961;DHT22;55902;-37.980;-63.602;2022-09-09T03:18:38;9.00;56.20
59961;DHT22;55902;-37.980;-63.602;2022-09-09T03:21:04;8.90;56.70
59961;DHT22;55902;-37.980;-63.602;2022-09-09T03:23:33;8.80;56.70
59961;DHT22;55902;-37.980;-63.602;2022-09-09T03:26:00;8.70;56.90
59961;DHT22;55902;-37.980;-63.602;2022-09-09T03:28:27;8.50;56.80
59961;DHT22;55902;-37.980;-63.602;2022-09-09T03:31:04;8.40;56.90
59961;DHT22;55902;-37.980;-63.602;2022-09-09T03:33:31;8.40;57.10
59961;DHT22;55902;-37.980;-63.602;2022-09-09T03:35:58;8.30;57.20
59961;DHT22;55902;-37.980;-63.602;2022-09-09T03:38:26;8.20;57.30
59961;DHT22;55902;-37.980;-63.602;2022-09-09T03:40:54;8.20;57.80
59961;DHT22;55902;-37.980;-63.602;2022-09-09T03:43:25;8.10;58.20
59961;DHT22;55902;-37.980;-63.602;2022-09-09T03:45:53;8.00;58.00
59961;DHT22;55902;-37.980;-63.602;2022-09-09T03:48:23;7.90;58.10
59961;DHT22;55902;-37.980;-63.602;2022-09-09T03:50:52;7.90;58.90
59961;DHT22;55902;-37.980;-63.602;2022-09-09T03:53:22;7.90;58.00
59961;DHT22;55902;-37.980;-63.602;2022-09-09T03:55:51;7.90;58.60
59961;DHT22;55902;-37.980;-63.602;2022-09-09T03:58:22;7.90;59.50
59961;DHT22;55902;-37.980;-63.602;2022-09-09T04:01:01;7.80;59.60
59961;DHT22;55902;-37.980;-63.602;2022-09-09T04:03:31;7.70;58.80
59961;DHT22;55902;-37.980;-63.602;2022-09-09T04:06:00;7.70;59.10
59961;DHT22;55902;-37.980;-63.602;2022-09-09T04:08:28;7.60;58.90
59961;DHT22;55902;-37.980;-63.602;2022-09-09T04:10:57;7.60;59.60
59961;DHT22;55902;-37.980;-63.602;2022-09-09T04:13:25;7.50;59.20
59961;DHT22;55902;-37.980;-63.602;2022-09-09T04:15:54;7.50;58.80
59961;DHT22;55902;-37.980;-63.602;2022-09-09T04:18:21;7.50;58.60
59961;DHT22;55902;-37.980;-63.602;2022-09-09T04:20:49;7.50;58.80
59961;DHT22;55902;-37.980;-63.602;2022-09-09T04:23:17;7.50;58.60
59961;DHT22;55902;-37.980;-63.602;2022-09-09T04:25:49;7.60;58.50
59961;DHT22;55902;-37.980;-63.602;2022-09-09T04:28:17;7.60;58.60
59961;DHT22;55902;-37.980;-63.602;2022-09-09T04:30:45;7.60;59.10
59961;DHT22;55902;-37.980;-63.602;2022-09-09T04:33:13;7.60;58.80
59961;DHT22;55902;-37.980;-63.602;2022-09-09T04:39:02;7.50;59.30
59961;DHT22;55902;-37.980;-63.602;2022-09-09T04:56:39;7.20;59.20
59961;DHT22;55902;-37.980;-63.602;2022-09-09T04:59:08;7.20;59.60
59961;DHT22;55902;-37.980;-63.602;2022-09-09T05:01:36;7.10;60.50
59961;DHT22;55902;-37.980;-63.602;2022-09-09T05:04:03;7.00;63.00
59961;DHT22;55902;-37.980;-63.602;2022-09-09T05:06:30;7.00;66.40
59961;DHT22;55902;-37.980;-63.602;2022-09-09T05:08:57;6.90;65.70
59961;DHT22;55902;-37.980;-63.602;2022-09-09T05:11:27;7.00;63.00
59961;DHT22;55902;-37.980;-63.602;2022-09-09T05:13:54;6.90;62.90
59961;DHT22;55902;-37.980;-63.602;2022-09-09T05:16:22;6.80;62.20
59961;DHT22;55902;-37.980;-63.602;2022-09-09T05:18:50;6.80;61.80
59961;DHT22;55902;-37.980;-63.602;2022-09-09T05:21:18;6.70;62.00
59961;DHT22;55902;-37.980;-63.602;2022-09-09T05:23:46;6.70;62.80
59961;DHT22;55902;-37.980;-63.602;2022-09-09T05:26:15;6.70;62.30
59961;DHT22;55902;-37.980;-63.602;2022-09-09T05:28:42;6.70;61.80
59961;DHT22;55902;-37.980;-63.602;2022-09-09T05:31:11;6.60;62.80
59961;DHT22;55902;-37.980;-63.602;2022-09-09T05:33:43;6.60;61.40
59961;DHT22;55902;-37.980;-63.602;2022-09-09T05:36:13;6.60;61.00
59961;DHT22;55902;-37.980;-63.602;2022-09-09T05:38:41;6.60;60.60
59961;DHT22;55902;-37.980;-63.602;2022-09-09T05:41:09;6.50;60.40
59961;DHT22;55902;-37.980;-63.602;2022-09-09T05:43:42;6.50;60.70
59961;DHT22;55902;-37.980;-63.602;2022-09-09T05:52:54;6.50;60.80
59961;DHT22;55902;-37.980;-63.602;2022-09-09T06:06:27;6.50;61.20
59961;DHT22;55902;-37.980;-63.602;2022-09-09T06:08:57;6.50;64.80
59961;DHT22;55902;-37.980;-63.602;2022-09-09T06:11:27;6.40;66.40
59961;DHT22;55902;-37.980;-63.602;2022-09-09T06:13:54;6.40;64.50
59961;DHT22;55902;-37.980;-63.602;2022-09-09T06:16:25;6.20;66.00
59961;DHT22;55902;-37.980;-63.602;2022-09-09T06:18:54;6.00;67.60
59961;DHT22;55902;-37.980;-63.602;2022-09-09T06:21:27;5.90;67.60
59961;DHT22;55902;-37.980;-63.602;2022-09-09T06:23:56;5.70;68.40
59961;DHT22;55902;-37.980;-63.602;2022-09-09T06:26:26;5.70;67.10
59961;DHT22;55902;-37.980;-63.602;2022-09-09T06:28:54;5.60;68.00
59961;DHT22;55902;-37.980;-63.602;2022-09-09T06:31:23;5.60;67.60
59961;DHT22;55902;-37.980;-63.602;2022-09-09T06:33:52;5.60;67.20
59961;DHT22;55902;-37.980;-63.602;2022-09-09T06:36:19;5.60;67.10
59961;DHT22;55902;-37.980;-63.602;2022-09-09T06:38:47;5.60;68.50
59961;DHT22;55902;-37.980;-63.602;2022-09-09T06:41:16;5.50;70.20
59961;DHT22;55902;-37.980;-63.602;2022-09-09T06:43:43;5.50;70.50
59961;DHT22;55902;-37.980;-63.602;2022-09-09T06:46:14;5.40;73.10
59961;DHT22;55902;-37.980;-63.602;2022-09-09T06:48:42;5.30;74.80
59961;DHT22;55902;-37.980;-63.602;2022-09-09T06:51:17;5.30;73.10
59961;DHT22;55902;-37.980;-63.602;2022-09-09T06:53:45;5.30;70.60
59961;DHT22;55902;-37.980;-63.602;2022-09-09T06:56:22;5.30;68.90
59961;DHT22;55902;-37.980;-63.602;2022-09-09T06:58:50;5.30;70.10
59961;DHT22;55902;-37.980;-63.602;2022-09-09T07:01:25;5.20;70.80
59961;DHT22;55902;-37.980;-63.602;2022-09-09T07:03:55;5.10;71.30
59961;DHT22;55902;-37.980;-63.602;2022-09-09T07:06:28;5.00;72.60
59961;DHT22;55902;-37.980;-63.602;2022-09-09T07:09:01;5.00;73.30
59961;DHT22;55902;-37.980;-63.602;2022-09-09T07:11:32;4.90;73.90
59961;DHT22;55902;-37.980;-63.602;2022-09-09T07:14:00;4.90;72.40
59961;DHT22;55902;-37.980;-63.602;2022-09-09T07:16:28;4.80;73.70
59961;DHT22;55902;-37.980;-63.602;2022-09-09T07:18:55;4.70;74.50
59961;DHT22;55902;-37.980;-63.602;2022-09-09T07:21:27;4.60;74.00
59961;DHT22;55902;-37.980;-63.602;2022-09-09T07:23:56;4.60;73.50
59961;DHT22;55902;-37.980;-63.602;2022-09-09T07:26:25;4.50;75.70
59961;DHT22;55902;-37.980;-63.602;2022-09-09T07:28:52;4.60;74.70
59961;DHT22;55902;-37.980;-63.602;2022-09-09T07:31:22;4.60;73.50
59961;DHT22;55902;-37.980;-63.602;2022-09-09T07:33:50;4.70;72.10
59961;DHT22;55902;-37.980;-63.602;2022-09-09T07:38:49;4.90;70.50
59961;DHT22;55902;-37.980;-63.602;2022-09-09T07:41:32;5.00;70.90
59961;DHT22;55902;-37.980;-63.602;2022-09-09T07:44:04;5.20;70.90
59961;DHT22;55902;-37.980;-63.602;2022-09-09T07:46:33;5.30;71.20
59961;DHT22;55902;-37.980;-63.602;2022-09-09T07:49:00;5.40;70.60
59961;DHT22;55902;-37.980;-63.602;2022-09-09T07:51:32;5.60;69.70
59961;DHT22;55902;-37.980;-63.602;2022-09-09T07:54:05;5.70;69.40
59961;DHT22;55902;-37.980;-63.602;2022-09-09T07:56:33;5.70;69.50
59961;DHT22;55902;-37.980;-63.602;2022-09-09T07:59:00;5.70;69.50
59961;DHT22;55902;-37.980;-63.602;2022-09-09T08:01:31;5.60;73.80
59961;DHT22;55902;-37.980;-63.602;2022-09-09T08:03:59;5.60;72.80
59961;DHT22;55902;-37.980;-63.602;2022-09-09T08:06:32;5.70;71.50
59961;DHT22;55902;-37.980;-63.602;2022-09-09T08:09:00;5.70;72.80
59961;DHT22;55902;-37.980;-63.602;2022-09-09T08:11:28;5.70;71.70
59961;DHT22;55902;-37.980;-63.602;2022-09-09T08:13:56;5.70;73.10
59961;DHT22;55902;-37.980;-63.602;2022-09-09T08:16:26;5.70;73.60
59961;DHT22;55902;-37.980;-63.602;2022-09-09T08:18:53;5.60;74.90
59961;DHT22;55902;-37.980;-63.602;2022-09-09T08:21:26;5.60;74.30
59961;DHT22;55902;-37.980;-63.602;2022-09-09T08:23:56;5.50;74.30
59961;DHT22;55902;-37.980;-63.602;2022-09-09T08:26:28;5.50;74.00
59961;DHT22;55902;-37.980;-63.602;2022-09-09T08:28:57;5.60;72.60
59961;DHT22;55902;-37.980;-63.602;2022-09-09T08:31:31;5.60;72.50
59961;DHT22;55902;-37.980;-63.602;2022-09-09T08:34:00;5.60;72.50
59961;DHT22;55902;-37.980;-63.602;2022-09-09T08:36:30;5.60;73.00
59961;DHT22;55902;-37.980;-63.602;2022-09-09T08:38:58;5.60;73.90
59961;DHT22;55902;-37.980;-63.602;2022-09-09T08:41:39;5.50;73.80
59961;DHT22;55902;-37.980;-63.602;2022-09-09T08:47:09;5.50;72.70
59961;DHT22;55902;-37.980;-63.602;2022-09-09T08:52:21;5.50;72.70
59961;DHT22;55902;-37.980;-63.602;2022-09-09T08:54:50;5.40;71.60
59961;DHT22;55902;-37.980;-63.602;2022-09-09T08:57:25;5.30;71.50
59961;DHT22;55902;-37.980;-63.602;2022-09-09T08:59:55;5.30;71.70
59961;DHT22;55902;-37.980;-63.602;2022-09-09T09:13:14;5.10;73.60
59961;DHT22;55902;-37.980;-63.602;2022-09-09T09:15:42;5.10;72.80
59961;DHT22;55902;-37.980;-63.602;2022-09-09T09:18:12;5.10;73.40
59961;DHT22;55902;-37.980;-63.602;2022-09-09T09:23:24;5.10;72.70
59961;DHT22;55902;-37.980;-63.602;2022-09-09T09:25:56;5.10;71.40
59961;DHT22;55902;-37.980;-63.602;2022-09-09T09:28:29;5.10;70.80
59961;DHT22;55902;-37.980;-63.602;2022-09-09T09:36:00;5.20;70.70
59961;DHT22;55902;-37.980;-63.602;2022-09-09T09:38:28;5.20;71.20
59961;DHT22;55902;-37.980;-63.602;2022-09-09T09:40:58;5.10;71.10
59961;DHT22;55902;-37.980;-63.602;2022-09-09T09:43:31;5.20;71.10
59961;DHT22;55902;-37.980;-63.602;2022-09-09T09:45:59;5.20;70.70
59961;DHT22;55902;-37.980;-63.602;2022-09-09T09:48:27;5.20;70.60
59961;DHT22;55902;-37.980;-63.602;2022-09-09T09:51:07;5.20;70.80
59961;DHT22;55902;-37.980;-63.602;2022-09-09T09:53:37;5.20;70.90
59961;DHT22;55902;-37.980;-63.602;2022-09-09T09:56:05;5.10;71.80
59961;DHT22;55902;-37.980;-63.602;2022-09-09T09:58:53;5.10;71.20
59961;DHT22;55902;-37.980;-63.602;2022-09-09T10:01:31;5.10;70.90
59961;DHT22;55902;-37.980;-63.602;2022-09-09T10:06:47;5.10;71.60
59961;DHT22;55902;-37.980;-63.602;2022-09-09T10:09:26;5.10;71.70
59961;DHT22;55902;-37.980;-63.602;2022-09-09T10:14:51;5.00;73.00
59961;DHT22;55902;-37.980;-63.602;2022-09-09T10:22:33;4.80;74.20
59961;DHT22;55902;-37.980;-63.602;2022-09-09T10:25:39;4.80;74.20
59961;DHT22;55902;-37.980;-63.602;2022-09-09T10:28:40;4.70;73.70
59961;DHT22;55902;-37.980;-63.602;2022-09-09T10:37:11;4.70;73.00
59961;DHT22;55902;-37.980;-63.602;2022-09-09T10:39:40;4.70;73.70
59961;DHT22;55902;-37.980;-63.602;2022-09-09T10:42:15;4.70;73.60
59961;DHT22;55902;-37.980;-63.602;2022-09-09T10:45:20;4.70;73.20
59961;DHT22;55902;-37.980;-63.602;2022-09-09T10:48:04;4.70;72.10
59961;DHT22;55902;-37.980;-63.602;2022-09-09T10:51:13;4.70;71.80
59961;DHT22;55902;-37.980;-63.602;2022-09-09T10:54:07;4.80;73.50
59961;DHT22;55902;-37.980;-63.602;2022-09-09T10:56:38;4.80;72.80
59961;DHT22;55902;-37.980;-63.602;2022-09-09T10:59:39;4.80;72.70
59961;DHT22;55902;-37.980;-63.602;2022-09-09T11:02:28;4.80;73.50
59961;DHT22;55902;-37.980;-63.602;2022-09-09T11:08:21;4.90;73.60
59961;DHT22;55902;-37.980;-63.602;2022-09-09T11:17:43;5.10;72.30
59961;DHT22;55902;-37.980;-63.602;2022-09-09T11:20:14;5.50;72.40
59961;DHT22;55902;-37.980;-63.602;2022-09-09T11:25:42;6.60;71.90
59961;DHT22;55902;-37.980;-63.602;2022-09-09T11:41:40;10.60;65.30
59961;DHT22;55902;-37.980;-63.602;2022-09-09T11:44:12;11.10;63.20
59961;DHT22;55902;-37.980;-63.602;2022-09-09T11:46:41;11.50;63.20
59961;DHT22;55902;-37.980;-63.602;2022-09-09T11:49:29;12.00;62.80
59961;DHT22;55902;-37.980;-63.602;2022-09-09T11:52:40;12.50;62.40
59961;DHT22;55902;-37.980;-63.602;2022-09-09T11:55:11;13.10;61.40
59961;DHT22;55902;-37.980;-63.602;2022-09-09T11:57:39;13.60;60.60
59961;DHT22;55902;-37.980;-63.602;2022-09-09T12:00:27;14.00;59.90
59961;DHT22;55902;-37.980;-63.602;2022-09-09T12:02:54;14.40;59.70
59961;DHT22;55902;-37.980;-63.602;2022-09-09T12:05:21;14.80;59.10
59961;DHT22;55902;-37.980;-63.602;2022-09-09T12:07:52;15.10;59.30
59961;DHT22;55902;-37.980;-63.602;2022-09-09T12:10:30;15.50;58.80
59961;DHT22;55902;-37.980;-63.602;2022-09-09T12:13:18;15.80;56.60
59961;DHT22;55902;-37.980;-63.602;2022-09-09T12:15:59;16.00;57.20
59961;DHT22;55902;-37.980;-63.602;2022-09-09T12:18:35;16.30;56.90
59961;DHT22;55902;-37.980;-63.602;2022-09-09T12:21:17;16.40;56.50
59961;DHT22;55902;-37.980;-63.602;2022-09-09T12:31:56;17.20;54.60
59961;DHT22;55902;-37.980;-63.602;2022-09-09T12:39:54;17.90;53.80
59961;DHT22;55902;-37.980;-63.602;2022-09-09T12:42:22;18.10;52.90
59961;DHT22;55902;-37.980;-63.602;2022-09-09T12:44:55;18.30;53.30
59961;DHT22;55902;-37.980;-63.602;2022-09-09T12:47:46;18.60;51.20
59961;DHT22;55902;-37.980;-63.602;2022-09-09T12:50:27;18.70;51.20
59961;DHT22;55902;-37.980;-63.602;2022-09-09T12:56:06;18.90;50.30
59961;DHT22;55902;-37.980;-63.602;2022-09-09T12:58:44;19.00;50.70
59961;DHT22;55902;-37.980;-63.602;2022-09-09T13:01:22;19.10;47.30
59961;DHT22;55902;-37.980;-63.602;2022-09-09T13:04:22;19.10;48.50
59961;DHT22;55902;-37.980;-63.602;2022-09-09T13:07:09;19.00;46.30
59961;DHT22;55902;-37.980;-63.602;2022-09-09T13:09:36;19.00;47.90
59961;DHT22;55902;-37.980;-63.602;2022-09-09T13:12:04;19.10;48.70
59961;DHT22;55902;-37.980;-63.602;2022-09-09T13:14:35;19.10;45.50
59961;DHT22;55902;-37.980;-63.602;2022-09-09T13:17:15;19.10;47.10
59961;DHT22;55902;-37.980;-63.602;2022-09-09T13:19:44;19.20;47.00
59961;DHT22;55902;-37.980;-63.602;2022-09-09T13:22:33;19.30;45.80
59961;DHT22;55902;-37.980;-63.602;2022-09-09T13:25:16;19.40;45.40
59961;DHT22;55902;-37.980;-63.602;2022-09-09T13:30:30;19.60;44.60
59961;DHT22;55902;-37.980;-63.602;2022-09-09T13:33:20;19.60;43.40
59961;DHT22;55902;-37.980;-63.602;2022-09-09T13:35:58;19.60;43.10
59961;DHT22;55902;-37.980;-63.602;2022-09-09T13:38:27;19.70;44.70
59961;DHT22;55902;-37.980;-63.602;2022-09-09T13:41:00;19.80;44.00
59961;DHT22;55902;-37.980;-63.602;2022-09-09T13:43:42;19.80;43.60
59961;DHT22;55902;-37.980;-63.602;2022-09-09T13:46:34;20.00;44.70
59961;DHT22;55902;-37.980;-63.602;2022-09-09T13:49:22;20.30;43.60
59961;DHT22;55902;-37.980;-63.602;2022-09-09T13:52:09;20.50;43.80
59961;DHT22;55902;-37.980;-63.602;2022-09-09T13:54:37;20.60;42.60
59961;DHT22;55902;-37.980;-63.602;2022-09-09T13:57:11;20.80;44.30
59961;DHT22;55902;-37.980;-63.602;2022-09-09T13:59:57;20.90;44.10
59961;DHT22;55902;-37.980;-63.602;2022-09-09T14:02:25;21.10;42.50
59961;DHT22;55902;-37.980;-63.602;2022-09-09T14:04:52;21.30;42.90
59961;DHT22;55902;-37.980;-63.602;2022-09-09T14:07:21;21.40;40.10
59961;DHT22;55902;-37.980;-63.602;2022-09-09T14:09:48;21.10;38.70
59961;DHT22;55902;-37.980;-63.602;2022-09-09T14:12:20;21.00;39.60
59961;DHT22;55902;-37.980;-63.602;2022-09-09T14:14:47;20.70;39.10
59961;DHT22;55902;-37.980;-63.602;2022-09-09T14:17:14;20.80;39.80
59961;DHT22;55902;-37.980;-63.602;2022-09-09T14:19:41;21.00;41.10
59961;DHT22;55902;-37.980;-63.602;2022-09-09T14:22:08;21.30;39.70
59961;DHT22;55902;-37.980;-63.602;2022-09-09T14:24:39;21.40;38.00
59961;DHT22;55902;-37.980;-63.602;2022-09-09T14:27:05;21.50;38.20
59961;DHT22;55902;-37.980;-63.602;2022-09-09T14:29:40;21.60;40.00
59961;DHT22;55902;-37.980;-63.602;2022-09-09T14:32:13;21.80;37.40
59961;DHT22;55902;-37.980;-63.602;2022-09-09T14:34:40;21.80;37.00
59961;DHT22;55902;-37.980;-63.602;2022-09-09T14:37:07;21.70;36.00
59961;DHT22;55902;-37.980;-63.602;2022-09-09T14:39:34;21.90;39.40
59961;DHT22;55902;-37.980;-63.602;2022-09-09T14:42:01;22.10;35.80
59961;DHT22;55902;-37.980;-63.602;2022-09-09T14:44:28;22.00;34.70
59961;DHT22;55902;-37.980;-63.602;2022-09-09T14:46:55;21.80;36.20
59961;DHT22;55902;-37.980;-63.602;2022-09-09T14:49:26;21.90;36.40
59961;DHT22;55902;-37.980;-63.602;2022-09-09T14:51:56;22.00;36.50
59961;DHT22;55902;-37.980;-63.602;2022-09-09T14:54:22;22.20;35.30
59961;DHT22;55902;-37.980;-63.602;2022-09-09T14:56:49;22.30;34.50
59961;DHT22;55902;-37.980;-63.602;2022-09-09T14:59:16;22.40;35.70
59961;DHT22;55902;-37.980;-63.602;2022-09-09T15:01:44;22.60;36.10
59961;DHT22;55902;-37.980;-63.602;2022-09-09T15:04:28;22.90;34.40
59961;DHT22;55902;-37.980;-63.602;2022-09-09T15:06:54;22.70;34.10
59961;DHT22;55902;-37.980;-63.602;2022-09-09T15:09:29;22.80;34.60
59961;DHT22;55902;-37.980;-63.602;2022-09-09T15:11:58;22.90;35.20
59961;DHT22;55902;-37.980;-63.602;2022-09-09T15:14:28;23.10;33.20
59961;DHT22;55902;-37.980;-63.602;2022-09-09T15:17:05;22.90;31.80
59961;DHT22;55902;-37.980;-63.602;2022-09-09T15:19:32;22.80;34.50
59961;DHT22;55902;-37.980;-63.602;2022-09-09T15:22:05;22.80;32.90
59961;DHT22;55902;-37.980;-63.602;2022-09-09T15:24:33;23.20;33.30
59961;DHT22;55902;-37.980;-63.602;2022-09-09T15:27:02;23.70;34.50
59961;DHT22;55902;-37.980;-63.602;2022-09-09T15:29:29;24.00;32.40
59961;DHT22;55902;-37.980;-63.602;2022-09-09T15:31:56;24.10;33.30
59961;DHT22;55902;-37.980;-63.602;2022-09-09T15:34:22;24.20;30.70
59961;DHT22;55902;-37.980;-63.602;2022-09-09T15:36:50;24.20;30.20
59961;DHT22;55902;-37.980;-63.602;2022-09-09T15:39:18;24.20;29.10
59961;DHT22;55902;-37.980;-63.602;2022-09-09T15:41:46;24.10;31.60
59961;DHT22;55902;-37.980;-63.602;2022-09-09T15:44:21;24.20;30.10
59961;DHT22;55902;-37.980;-63.602;2022-09-09T15:46:56;24.40;31.60
59961;DHT22;55902;-37.980;-63.602;2022-09-09T15:49:25;24.70;30.50
59961;DHT22;55902;-37.980;-63.602;2022-09-09T15:51:57;24.90;31.00
59961;DHT22;55902;-37.980;-63.602;2022-09-09T15:54:27;24.90;28.30
59961;DHT22;55902;-37.980;-63.602;2022-09-09T15:56:59;25.00;29.70
59961;DHT22;55902;-37.980;-63.602;2022-09-09T15:59:29;25.30;30.30
59961;DHT22;55902;-37.980;-63.602;2022-09-09T16:01:56;25.50;29.80
59961;DHT22;55902;-37.980;-63.602;2022-09-09T16:04:25;25.80;28.90
59961;DHT22;55902;-37.980;-63.602;2022-09-09T16:07:03;25.80;26.40
59961;DHT22;55902;-37.980;-63.602;2022-09-09T16:09:34;25.10;25.90
59961;DHT22;55902;-37.980;-63.602;2022-09-09T16:12:03;24.70;26.20
59961;DHT22;55902;-37.980;-63.602;2022-09-09T16:14:33;24.70;28.60
59961;DHT22;55902;-37.980;-63.602;2022-09-09T16:17:03;25.10;29.30
59961;DHT22;55902;-37.980;-63.602;2022-09-09T16:19:31;25.60;27.90
59961;DHT22;55902;-37.980;-63.602;2022-09-09T16:21:58;25.90;27.40
59961;DHT22;55902;-37.980;-63.602;2022-09-09T16:24:25;26.10;27.50
59961;DHT22;55902;-37.980;-63.602;2022-09-09T16:26:54;26.30;28.10
59961;DHT22;55902;-37.980;-63.602;2022-09-09T16:29:21;26.70;28.60
59961;DHT22;55902;-37.980;-63.602;2022-09-09T16:31:49;26.90;27.20
59961;DHT22;55902;-37.980;-63.602;2022-09-09T16:34:18;27.00;27.20
59961;DHT22;55902;-37.980;-63.602;2022-09-09T16:36:45;27.00;27.40
59961;DHT22;55902;-37.980;-63.602;2022-09-09T16:39:15;27.20;27.20
59961;DHT22;55902;-37.980;-63.602;2022-09-09T16:41:43;27.50;26.80
59961;DHT22;55902;-37.980;-63.602;2022-09-09T16:44:13;27.90;26.70
59961;DHT22;55902;-37.980;-63.602;2022-09-09T16:46:44;28.10;26.10
59961;DHT22;55902;-37.980;-63.602;2022-09-09T16:49:22;27.70;24.10
59961;DHT22;55902;-37.980;-63.602;2022-09-09T16:51:50;27.90;26.10
59961;DHT22;55902;-37.980;-63.602;2022-09-09T16:54:20;27.90;24.50
59961;DHT22;55902;-37.980;-63.602;2022-09-09T16:56:49;28.10;24.70
59961;DHT22;55902;-37.980;-63.602;2022-09-09T16:59:20;27.90;25.50
59961;DHT22;55902;-37.980;-63.602;2022-09-09T17:01:49;27.60;23.50
59961;DHT22;55902;-37.980;-63.602;2022-09-09T17:04:21;27.60;24.30
59961;DHT22;55902;-37.980;-63.602;2022-09-09T17:06:52;27.70;25.80
59961;DHT22;55902;-37.980;-63.602;2022-09-09T17:09:19;28.00;23.90
59961;DHT22;55902;-37.980;-63.602;2022-09-09T17:11:48;28.10;23.60
59961;DHT22;55902;-37.980;-63.602;2022-09-09T17:14:19;28.10;23.60
59961;DHT22;55902;-37.980;-63.602;2022-09-09T17:16:46;28.40;24.80
59961;DHT22;55902;-37.980;-63.602;2022-09-09T17:19:14;28.20;22.50
59961;DHT22;55902;-37.980;-63.602;2022-09-09T17:21:41;28.30;23.30
59961;DHT22;55902;-37.980;-63.602;2022-09-09T17:24:10;28.40;23.80
59961;DHT22;55902;-37.980;-63.602;2022-09-09T17:26:37;28.40;24.20
59961;DHT22;55902;-37.980;-63.602;2022-09-09T17:29:04;28.60;25.00
59961;DHT22;55902;-37.980;-63.602;2022-09-09T17:31:32;28.90;23.60
59961;DHT22;55902;-37.980;-63.602;2022-09-09T17:34:00;28.30;21.50
59961;DHT22;55902;-37.980;-63.602;2022-09-09T17:36:32;28.20;22.70
59961;DHT22;55902;-37.980;-63.602;2022-09-09T17:39:00;28.30;23.10
59961;DHT22;55902;-37.980;-63.602;2022-09-09T17:41:33;28.70;23.60
59961;DHT22;55902;-37.980;-63.602;2022-09-09T17:44:01;28.90;23.80
59961;DHT22;55902;-37.980;-63.602;2022-09-09T17:46:34;29.10;23.10
59961;DHT22;55902;-37.980;-63.602;2022-09-09T17:49:04;29.40;23.80
59961;DHT22;55902;-37.980;-63.602;2022-09-09T17:51:33;29.50;23.50
59961;DHT22;55902;-37.980;-63.602;2022-09-09T17:54:06;29.60;23.50
59961;DHT22;55902;-37.980;-63.602;2022-09-09T17:56:34;29.80;23.50
59961;DHT22;55902;-37.980;-63.602;2022-09-09T17:59:02;29.50;21.10
59961;DHT22;55902;-37.980;-63.602;2022-09-09T18:01:32;29.40;21.90
59961;DHT22;55902;-37.980;-63.602;2022-09-09T18:04:04;29.10;22.30
59961;DHT22;55902;-37.980;-63.602;2022-09-09T18:06:35;29.10;22.70
59961;DHT22;55902;-37.980;-63.602;2022-09-09T18:09:05;29.30;23.70
59961;DHT22;55902;-37.980;-63.602;2022-09-09T18:11:36;29.50;22.20
59961;DHT22;55902;-37.980;-63.602;2022-09-09T18:14:09;29.70;22.50
59961;DHT22;55902;-37.980;-63.602;2022-09-09T18:16:38;29.70;21.90
59961;DHT22;55902;-37.980;-63.602;2022-09-09T18:19:08;29.70;21.10
59961;DHT22;55902;-37.980;-63.602;2022-09-09T18:21:37;29.40;21.60
59961;DHT22;55902;-37.980;-63.602;2022-09-09T18:24:06;29.10;20.90
59961;DHT22;55902;-37.980;-63.602;2022-09-09T18:26:34;29.10;22.00